sensor_id;sensor_type;location;lat;lon;timestamp;temperature;humidity
36002;DHT22;22070;50.922;5.430;2024-03-06T00:00:06;8.60;99.90
36002;DHT22;22070;50.922;5.430;2024-03-06T00:02:34;8.60;99.90
36002;DHT22;22070;50.922;5.430;2024-03-06T00:05:00;8.60;99.90
36002;DHT22;22070;50.922;5.430;2024-03-06T00:07:26;8.50;99.90
36002;DHT22;22070;50.922;5.430;2024-03-06T00:09:51;8.60;99.90
36002;DHT22;22070;50.922;5.430;2024-03-06T00:12:18;8.60;99.90
36002;DHT22;22070;50.922;5.430;2024-03-06T00:14:44;8.50;99.90
36002;DHT22;22070;50.922;5.430;2024-03-06T00:17:10;8.50;99.90
36002;DHT22;22070;50.922;5.430;2024-03-06T00:19:35;8.50;99.90
36002;DHT22;22070;50.922;5.430;2024-03-06T00:22:01;8.50;99.90
36002;DHT22;22070;50.922;5.430;2024-03-06T00:24:27;8.50;99.90
36002;DHT22;22070;50.922;5.430;2024-03-06T00:26:53;8.40;99.90
36002;DHT22;22070;50.922;5.430;2024-03-06T00:29:19;8.40;99.90
36002;DHT22;22070;50.922;5.430;2024-03-06T00:31:45;8.40;99.90
36002;DHT22;22070;50.922;5.430;2024-03-06T00:34:12;8.30;99.90
36002;DHT22;22070;50.922;5.430;2024-03-06T00:36:40;8.30;99.90
36002;DHT22;22070;50.922;5.430;2024-03-06T00:39:06;8.30;99.90
36002;DHT22;22070;50.922;5.430;2024-03-06T00:41:34;8.30;99.90
36002;DHT22;22070;50.922;5.430;2024-03-06T00:43:59;8.30;99.90
36002;DHT22;22070;50.922;5.430;2024-03-06T00:46:25;8.20;99.90
36002;DHT22;22070;50.922;5.430;2024-03-06T00:48:51;8.20;99.90
36002;DHT22;22070;50.922;5.430;2024-03-06T00:51:16;8.20;99.90
36002;DHT22;22070;50.922;5.430;2024-03-06T00:53:42;8.20;99.90
36002;DHT22;22070;50.922;5.430;2024-03-06T00:56:08;8.10;99.90
36002;DHT22;22070;50.922;5.430;2024-03-06T00:58:33;8.10;99.90
36002;DHT22;22070;50.922;5.430;2024-03-06T01:00:59;8.10;99.90
36002;DHT22;22070;50.922;5.430;2024-03-06T01:03:25;8.00;99.90
36002;DHT22;22070;50.922;5.430;2024-03-06T01:05:50;8.00;99.90
36002;DHT22;22070;50.922;5.430;2024-03-06T01:08:19;7.90;99.90
36002;DHT22;22070;50.922;5.430;2024-03-06T01:10:44;7.90;99.90
36002;DHT22;22070;50.922;5.430;2024-03-06T01:13:10;7.80;99.90
36002;DHT22;22070;50.922;5.430;2024-03-06T01:15:37;7.90;99.90
36002;DHT22;22070;50.922;5.430;2024-03-06T01:18:03;7.80;99.90
36002;DHT22;22070;50.922;5.430;2024-03-06T01:20:29;7.80;99.90
36002;DHT22;22070;50.922;5.430;2024-03-06T01:22:55;7.80;99.90
36002;DHT22;22070;50.922;5.430;2024-03-06T01:25:21;7.70;99.90
36002;DHT22;22070;50.922;5.430;2024-03-06T01:27:48;7.60;99.90
36002;DHT22;22070;50.922;5.430;2024-03-06T01:30:14;7.60;99.90
36002;DHT22;22070;50.922;5.430;2024-03-06T01:32:40;7.50;99.90
36002;DHT22;22070;50.922;5.430;2024-03-06T01:35:06;7.30;99.90
36002;DHT22;22070;50.922;5.430;2024-03-06T01:37:32;7.20;99.90
36002;DHT22;22070;50.922;5.430;2024-03-06T01:39:57;7.20;99.90
36002;DHT22;22070;50.922;5.430;2024-03-06T01:42:23;7.20;99.90
36002;DHT22;22070;50.922;5.430;2024-03-06T01:44:49;7.10;99.90
36002;DHT22;22070;50.922;5.430;2024-03-06T01:47:15;7.20;99.90
36002;DHT22;22070;50.922;5.430;2024-03-06T01:49:41;7.20;99.90
36002;DHT22;22070;50.922;5.430;2024-03-06T01:52:09;7.10;99.90
36002;DHT22;22070;50.922;5.430;2024-03-06T01:54:37;7.10;99.90
36002;DHT22;22070;50.922;5.430;2024-03-06T01:57:03;7.00;99.90
36002;DHT22;22070;50.922;5.430;2024-03-06T01:59:29;7.00;99.90
36002;DHT22;22070;50.922;5.430;2024-03-06T02:01:55;6.90;99.90
36002;DHT22;22070;50.922;5.430;2024-03-06T02:04:22;6.90;99.90
36002;DHT22;22070;50.922;5.430;2024-03-06T02:06:49;6.90;99.90
36002;DHT22;22070;50.922;5.430;2024-03-06T02:09:15;6.70;99.90
36002;DHT22;22070;50.922;5.430;2024-03-06T02:11:41;6.70;99.90
36002;DHT22;22070;50.922;5.430;2024-03-06T02:14:07;6.70;99.90
36002;DHT22;22070;50.922;5.430;2024-03-06T02:16:38;6.70;99.90
36002;DHT22;22070;50.922;5.430;2024-03-06T02:19:08;6.70;99.90
36002;DHT22;22070;50.922;5.430;2024-03-06T02:21:33;6.60;99.90
36002;DHT22;22070;50.922;5.430;2024-03-06T02:23:59;6.60;99.90
36002;DHT22;22070;50.922;5.430;2024-03-06T02:26:25;6.60;99.90
36002;DHT22;22070;50.922;5.430;2024-03-06T02:28:52;6.60;99.90
36002;DHT22;22070;50.922;5.430;2024-03-06T02:31:19;6.60;99.90
36002;DHT22;22070;50.922;5.430;2024-03-06T02:33:46;6.50;99.90
36002;DHT22;22070;50.922;5.430;2024-03-06T02:36:13;6.50;99.90
36002;DHT22;22070;50.922;5.430;2024-03-06T02:38:39;6.40;99.90
36002;DHT22;22070;50.922;5.430;2024-03-06T02:41:04;6.40;99.90
36002;DHT22;22070;50.922;5.430;2024-03-06T02:43:35;6.30;99.90
36002;DHT22;22070;50.922;5.430;2024-03-06T02:46:01;6.20;99.90
36002;DHT22;22070;50.922;5.430;2024-03-06T02:48:26;6.20;99.90
36002;DHT22;22070;50.922;5.430;2024-03-06T02:50:52;6.10;99.90
36002;DHT22;22070;50.922;5.430;2024-03-06T02:53:18;6.10;99.90
36002;DHT22;22070;50.922;5.430;2024-03-06T02:55:43;6.10;99.90
36002;DHT22;22070;50.922;5.430;2024-03-06T02:58:09;6.00;99.90
36002;DHT22;22070;50.922;5.430;2024-03-06T03:00:35;6.00;99.90
36002;DHT22;22070;50.922;5.430;2024-03-06T03:03:01;5.90;99.90
36002;DHT22;22070;50.922;5.430;2024-03-06T03:05:26;5.90;99.90
36002;DHT22;22070;50.922;5.430;2024-03-06T03:07:52;5.80;99.90
36002;DHT22;22070;50.922;5.430;2024-03-06T03:10:18;5.80;99.90
36002;DHT22;22070;50.922;5.430;2024-03-06T03:12:44;5.90;99.90
36002;DHT22;22070;50.922;5.430;2024-03-06T03:15:10;5.80;99.90
36002;DHT22;22070;50.922;5.430;2024-03-06T03:17:35;5.70;99.90
36002;DHT22;22070;50.922;5.430;2024-03-06T03:20:02;5.70;99.90
36002;DHT22;22070;50.922;5.430;2024-03-06T03:22:39;5.70;99.90
36002;DHT22;22070;50.922;5.430;2024-03-06T03:25:12;5.80;99.90
36002;DHT22;22070;50.922;5.430;2024-03-06T03:27:41;5.80;99.90
36002;DHT22;22070;50.922;5.430;2024-03-06T03:30:10;5.80;99.90
36002;DHT22;22070;50.922;5.430;2024-03-06T03:32:36;5.60;99.90
36002;DHT22;22070;50.922;5.430;2024-03-06T03:35:04;5.50;99.90
36002;DHT22;22070;50.922;5.430;2024-03-06T03:37:31;5.50;99.90
36002;DHT22;22070;50.922;5.430;2024-03-06T03:39:56;5.50;99.90
36002;DHT22;22070;50.922;5.430;2024-03-06T03:42:22;5.50;99.90
36002;DHT22;22070;50.922;5.430;2024-03-06T03:44:48;5.40;99.90
36002;DHT22;22070;50.922;5.430;2024-03-06T03:47:13;5.30;99.90
36002;DHT22;22070;50.922;5.430;2024-03-06T03:49:39;5.20;99.90
36002;DHT22;22070;50.922;5.430;2024-03-06T03:52:05;5.20;99.90
36002;DHT22;22070;50.922;5.430;2024-03-06T03:54:31;5.10;99.90
36002;DHT22;22070;50.922;5.430;2024-03-06T03:56:56;5.10;99.90
36002;DHT22;22070;50.922;5.430;2024-03-06T03:59:24;5.20;99.90
36002;DHT22;22070;50.922;5.430;2024-03-06T04:01:50;5.10;99.90
36002;DHT22;22070;50.922;5.430;2024-03-06T04:04:16;5.20;99.90
36002;DHT22;22070;50.922;5.430;2024-03-06T04:06:41;5.20;99.90
36002;DHT22;22070;50.922;5.430;2024-03-06T04:09:07;5.20;99.90
36002;DHT22;22070;50.922;5.430;2024-03-06T04:11:36;5.00;99.90
36002;DHT22;22070;50.922;5.430;2024-03-06T04:14:03;5.00;99.90
36002;DHT22;22070;50.922;5.430;2024-03-06T04:16:29;4.90;99.90
36002;DHT22;22070;50.922;5.430;2024-03-06T04:18:55;4.80;99.90
36002;DHT22;22070;50.922;5.430;2024-03-06T04:21:20;4.80;99.90
36002;DHT22;22070;50.922;5.430;2024-03-06T04:23:48;4.80;99.90
36002;DHT22;22070;50.922;5.430;2024-03-06T04:26:13;4.90;99.90
36002;DHT22;22070;50.922;5.430;2024-03-06T04:28:39;4.90;99.90
36002;DHT22;22070;50.922;5.430;2024-03-06T04:31:05;4.90;99.90
36002;DHT22;22070;50.922;5.430;2024-03-06T04:33:31;4.90;99.90
36002;DHT22;22070;50.922;5.430;2024-03-06T04:35:56;4.80;99.90
36002;DHT22;22070;50.922;5.430;2024-03-06T04:38:22;4.90;99.90
36002;DHT22;22070;50.922;5.430;2024-03-06T04:40:48;4.90;99.90
36002;DHT22;22070;50.922;5.430;2024-03-06T04:43:13;4.90;99.90
36002;DHT22;22070;50.922;5.430;2024-03-06T04:45:39;4.90;99.90
36002;DHT22;22070;50.922;5.430;2024-03-06T04:48:05;4.70;99.90
36002;DHT22;22070;50.922;5.430;2024-03-06T04:50:31;4.70;99.90
36002;DHT22;22070;50.922;5.430;2024-03-06T04:52:57;4.80;99.90
36002;DHT22;22070;50.922;5.430;2024-03-06T04:55:23;4.80;99.90
36002;DHT22;22070;50.922;5.430;2024-03-06T04:57:51;4.90;99.90
36002;DHT22;22070;50.922;5.430;2024-03-06T05:00:17;4.80;99.90
36002;DHT22;22070;50.922;5.430;2024-03-06T05:02:43;4.70;99.90
36002;DHT22;22070;50.922;5.430;2024-03-06T05:05:09;4.70;99.90
36002;DHT22;22070;50.922;5.430;2024-03-06T05:07:35;4.70;99.90
36002;DHT22;22070;50.922;5.430;2024-03-06T05:10:00;4.70;99.90
36002;DHT22;22070;50.922;5.430;2024-03-06T05:12:27;4.60;99.90
36002;DHT22;22070;50.922;5.430;2024-03-06T05:14:53;4.40;99.90
36002;DHT22;22070;50.922;5.430;2024-03-06T05:17:19;4.40;99.90
36002;DHT22;22070;50.922;5.430;2024-03-06T05:19:46;4.40;99.90
36002;DHT22;22070;50.922;5.430;2024-03-06T05:22:13;4.40;99.90
36002;DHT22;22070;50.922;5.430;2024-03-06T05:24:39;4.40;99.90
36002;DHT22;22070;50.922;5.430;2024-03-06T05:27:05;4.40;99.90
36002;DHT22;22070;50.922;5.430;2024-03-06T05:29:30;4.30;99.90
36002;DHT22;22070;50.922;5.430;2024-03-06T05:31:56;4.30;99.90
36002;DHT22;22070;50.922;5.430;2024-03-06T05:34:25;4.20;99.90
36002;DHT22;22070;50.922;5.430;2024-03-06T05:36:50;4.30;99.90
36002;DHT22;22070;50.922;5.430;2024-03-06T05:39:16;4.20;99.90
36002;DHT22;22070;50.922;5.430;2024-03-06T05:41:43;4.20;99.90
36002;DHT22;22070;50.922;5.430;2024-03-06T05:44:09;4.30;99.90
36002;DHT22;22070;50.922;5.430;2024-03-06T05:46:35;4.30;99.90
36002;DHT22;22070;50.922;5.430;2024-03-06T05:49:02;4.30;99.90
36002;DHT22;22070;50.922;5.430;2024-03-06T05:51:28;4.20;99.90
36002;DHT22;22070;50.922;5.430;2024-03-06T05:53:53;4.20;99.90
36002;DHT22;22070;50.922;5.430;2024-03-06T05:56:19;4.10;99.90
36002;DHT22;22070;50.922;5.430;2024-03-06T05:58:46;4.20;99.90
36002;DHT22;22070;50.922;5.430;2024-03-06T06:01:13;4.20;99.90
36002;DHT22;22070;50.922;5.430;2024-03-06T06:03:41;4.00;99.90
36002;DHT22;22070;50.922;5.430;2024-03-06T06:06:07;4.00;99.90
36002;DHT22;22070;50.922;5.430;2024-03-06T06:08:34;4.00;99.90
36002;DHT22;22070;50.922;5.430;2024-03-06T06:11:01;4.00;99.90
36002;DHT22;22070;50.922;5.430;2024-03-06T06:13:28;4.00;99.90
36002;DHT22;22070;50.922;5.430;2024-03-06T06:15:54;4.00;99.90
36002;DHT22;22070;50.922;5.430;2024-03-06T06:18:20;3.90;99.90
36002;DHT22;22070;50.922;5.430;2024-03-06T06:20:46;4.00;99.90
36002;DHT22;22070;50.922;5.430;2024-03-06T06:23:11;4.00;99.90
36002;DHT22;22070;50.922;5.430;2024-03-06T06:25:37;4.00;99.90
36002;DHT22;22070;50.922;5.430;2024-03-06T06:28:03;3.90;99.90
36002;DHT22;22070;50.922;5.430;2024-03-06T06:30:29;3.90;99.90
36002;DHT22;22070;50.922;5.430;2024-03-06T06:32:55;3.90;99.90
36002;DHT22;22070;50.922;5.430;2024-03-06T06:35:20;4.00;99.90
36002;DHT22;22070;50.922;5.430;2024-03-06T06:37:46;4.00;99.90
36002;DHT22;22070;50.922;5.430;2024-03-06T06:40:12;4.10;99.90
36002;DHT22;22070;50.922;5.430;2024-03-06T06:42:44;4.10;99.90
36002;DHT22;22070;50.922;5.430;2024-03-06T06:45:15;4.10;99.90
36002;DHT22;22070;50.922;5.430;2024-03-06T06:47:41;4.10;99.90
36002;DHT22;22070;50.922;5.430;2024-03-06T06:50:07;4.00;99.90
36002;DHT22;22070;50.922;5.430;2024-03-06T06:52:34;4.10;99.90
36002;DHT22;22070;50.922;5.430;2024-03-06T06:55:00;4.10;99.90
36002;DHT22;22070;50.922;5.430;2024-03-06T06:57:26;4.20;99.90
36002;DHT22;22070;50.922;5.430;2024-03-06T06:59:52;4.10;99.90
36002;DHT22;22070;50.922;5.430;2024-03-06T07:02:18;4.10;99.90
36002;DHT22;22070;50.922;5.430;2024-03-06T07:04:43;4.20;99.90
36002;DHT22;22070;50.922;5.430;2024-03-06T07:07:09;4.30;99.90
36002;DHT22;22070;50.922;5.430;2024-03-06T07:09:35;4.20;99.90
36002;DHT22;22070;50.922;5.430;2024-03-06T07:12:01;4.10;99.90
36002;DHT22;22070;50.922;5.430;2024-03-06T07:14:28;4.10;99.90
36002;DHT22;22070;50.922;5.430;2024-03-06T07:16:53;4.10;99.90
36002;DHT22;22070;50.922;5.430;2024-03-06T07:19:19;4.10;99.90
36002;DHT22;22070;50.922;5.430;2024-03-06T07:21:45;4.10;99.90
36002;DHT22;22070;50.922;5.430;2024-03-06T07:24:11;4.20;99.90
36002;DHT22;22070;50.922;5.430;2024-03-06T07:26:36;4.20;99.90
36002;DHT22;22070;50.922;5.430;2024-03-06T07:29:02;4.20;99.90
36002;DHT22;22070;50.922;5.430;2024-03-06T07:31:28;4.30;99.90
36002;DHT22;22070;50.922;5.430;2024-03-06T07:33:54;4.30;99.90
36002;DHT22;22070;50.922;5.430;2024-03-06T07:36:20;4.40;99.90
36002;DHT22;22070;50.922;5.430;2024-03-06T07:38:47;4.50;99.90
36002;DHT22;22070;50.922;5.430;2024-03-06T07:41:12;4.60;99.90
36002;DHT22;22070;50.922;5.430;2024-03-06T07:43:38;4.70;99.90
36002;DHT22;22070;50.922;5.430;2024-03-06T07:46:04;4.80;99.90
36002;DHT22;22070;50.922;5.430;2024-03-06T07:48:41;4.90;99.90
36002;DHT22;22070;50.922;5.430;2024-03-06T07:51:07;5.10;99.90
36002;DHT22;22070;50.922;5.430;2024-03-06T07:53:33;5.20;99.90
36002;DHT22;22070;50.922;5.430;2024-03-06T07:55:59;5.20;99.90
36002;DHT22;22070;50.922;5.430;2024-03-06T07:58:24;5.30;99.90
36002;DHT22;22070;50.922;5.430;2024-03-06T08:00:52;5.30;99.90
36002;DHT22;22070;50.922;5.430;2024-03-06T08:03:21;5.30;99.90
36002;DHT22;22070;50.922;5.430;2024-03-06T08:05:51;5.40;99.90
36002;DHT22;22070;50.922;5.430;2024-03-06T08:08:21;5.50;99.90
36002;DHT22;22070;50.922;5.430;2024-03-06T08:10:47;5.60;99.90
36002;DHT22;22070;50.922;5.430;2024-03-06T08:13:13;5.60;99.90
36002;DHT22;22070;50.922;5.430;2024-03-06T08:15:39;5.70;99.90
36002;DHT22;22070;50.922;5.430;2024-03-06T08:18:05;5.80;99.90
36002;DHT22;22070;50.922;5.430;2024-03-06T08:20:31;5.80;99.90
36002;DHT22;22070;50.922;5.430;2024-03-06T08:22:58;5.90;99.90
36002;DHT22;22070;50.922;5.430;2024-03-06T08:25:23;6.00;99.90
36002;DHT22;22070;50.922;5.430;2024-03-06T08:27:49;6.10;99.90
36002;DHT22;22070;50.922;5.430;2024-03-06T08:30:15;6.10;99.90
36002;DHT22;22070;50.922;5.430;2024-03-06T08:32:41;6.20;99.90
36002;DHT22;22070;50.922;5.430;2024-03-06T08:35:12;6.20;99.90
36002;DHT22;22070;50.922;5.430;2024-03-06T08:37:42;6.30;99.90
36002;DHT22;22070;50.922;5.430;2024-03-06T08:40:08;6.30;99.90
36002;DHT22;22070;50.922;5.430;2024-03-06T08:42:42;6.40;99.90
36002;DHT22;22070;50.922;5.430;2024-03-06T08:45:08;6.60;99.90
36002;DHT22;22070;50.922;5.430;2024-03-06T08:47:34;6.60;99.90
36002;DHT22;22070;50.922;5.430;2024-03-06T08:50:00;6.80;99.90
36002;DHT22;22070;50.922;5.430;2024-03-06T08:52:28;6.80;99.90
36002;DHT22;22070;50.922;5.430;2024-03-06T08:54:54;6.90;99.90
36002;DHT22;22070;50.922;5.430;2024-03-06T08:57:19;7.00;99.90
36002;DHT22;22070;50.922;5.430;2024-03-06T08:59:47;7.10;99.90
36002;DHT22;22070;50.922;5.430;2024-03-06T09:02:15;7.10;99.90
36002;DHT22;22070;50.922;5.430;2024-03-06T09:04:42;7.20;99.90
36002;DHT22;22070;50.922;5.430;2024-03-06T09:07:08;7.20;99.90
36002;DHT22;22070;50.922;5.430;2024-03-06T09:09:35;7.30;99.90
36002;DHT22;22070;50.922;5.430;2024-03-06T09:12:01;7.40;99.90
36002;DHT22;22070;50.922;5.430;2024-03-06T09:14:26;7.50;99.90
36002;DHT22;22070;50.922;5.430;2024-03-06T09:16:52;7.60;99.90
36002;DHT22;22070;50.922;5.430;2024-03-06T09:19:18;7.70;99.90
36002;DHT22;22070;50.922;5.430;2024-03-06T09:21:43;7.70;99.90
36002;DHT22;22070;50.922;5.430;2024-03-06T09:24:09;7.80;99.90
36002;DHT22;22070;50.922;5.430;2024-03-06T09:26:34;7.80;99.90
36002;DHT22;22070;50.922;5.430;2024-03-06T09:29:00;7.90;99.90
36002;DHT22;22070;50.922;5.430;2024-03-06T09:31:26;7.90;99.90
36002;DHT22;22070;50.922;5.430;2024-03-06T09:33:53;7.90;99.90
36002;DHT22;22070;50.922;5.430;2024-03-06T09:36:19;8.00;99.90
36002;DHT22;22070;50.922;5.430;2024-03-06T09:38:44;8.10;99.90
36002;DHT22;22070;50.922;5.430;2024-03-06T09:41:10;8.10;99.90
36002;DHT22;22070;50.922;5.430;2024-03-06T09:43:36;8.20;99.90
36002;DHT22;22070;50.922;5.430;2024-03-06T09:46:02;8.20;99.90
36002;DHT22;22070;50.922;5.430;2024-03-06T09:48:29;8.30;99.90
36002;DHT22;22070;50.922;5.430;2024-03-06T09:51:01;8.50;99.90
36002;DHT22;22070;50.922;5.430;2024-03-06T09:53:27;8.50;99.90
36002;DHT22;22070;50.922;5.430;2024-03-06T09:55:54;8.60;99.90
36002;DHT22;22070;50.922;5.430;2024-03-06T09:58:21;8.60;99.90
36002;DHT22;22070;50.922;5.430;2024-03-06T10:00:48;8.70;99.90
36002;DHT22;22070;50.922;5.430;2024-03-06T10:03:15;8.70;99.90
36002;DHT22;22070;50.922;5.430;2024-03-06T10:05:41;8.70;99.90
36002;DHT22;22070;50.922;5.430;2024-03-06T10:08:09;8.80;99.90
36002;DHT22;22070;50.922;5.430;2024-03-06T10:10:35;8.90;99.90
36002;DHT22;22070;50.922;5.430;2024-03-06T10:13:02;9.00;99.90
36002;DHT22;22070;50.922;5.430;2024-03-06T10:15:28;9.00;99.90
36002;DHT22;22070;50.922;5.430;2024-03-06T10:18:14;9.10;99.90
36002;DHT22;22070;50.922;5.430;2024-03-06T10:20:40;9.00;99.90
36002;DHT22;22070;50.922;5.430;2024-03-06T10:23:09;9.10;99.90
36002;DHT22;22070;50.922;5.430;2024-03-06T10:25:35;9.20;99.90
36002;DHT22;22070;50.922;5.430;2024-03-06T10:28:11;9.30;99.90
36002;DHT22;22070;50.922;5.430;2024-03-06T10:30:38;9.40;99.90
36002;DHT22;22070;50.922;5.430;2024-03-06T10:33:07;9.50;99.90
36002;DHT22;22070;50.922;5.430;2024-03-06T10:35:37;9.50;99.90
36002;DHT22;22070;50.922;5.430;2024-03-06T10:38:04;9.60;99.90
36002;DHT22;22070;50.922;5.430;2024-03-06T10:40:35;9.70;99.90
36002;DHT22;22070;50.922;5.430;2024-03-06T10:43:01;9.80;99.90
36002;DHT22;22070;50.922;5.430;2024-03-06T10:45:47;9.90;99.90
36002;DHT22;22070;50.922;5.430;2024-03-06T10:48:17;10.00;99.90
36002;DHT22;22070;50.922;5.430;2024-03-06T10:50:45;10.00;99.90
36002;DHT22;22070;50.922;5.430;2024-03-06T10:53:15;9.90;99.90
36002;DHT22;22070;50.922;5.430;2024-03-06T10:55:45;10.00;99.90
36002;DHT22;22070;50.922;5.430;2024-03-06T10:58:11;10.00;99.90
36002;DHT22;22070;50.922;5.430;2024-03-06T11:00:45;10.10;99.90
36002;DHT22;22070;50.922;5.430;2024-03-06T11:03:14;10.20;99.90
36002;DHT22;22070;50.922;5.430;2024-03-06T11:05:41;10.30;99.90
36002;DHT22;22070;50.922;5.430;2024-03-06T11:08:11;10.30;99.90
36002;DHT22;22070;50.922;5.430;2024-03-06T11:10:40;10.30;99.90
36002;DHT22;22070;50.922;5.430;2024-03-06T11:15:48;10.60;99.90
36002;DHT22;22070;50.922;5.430;2024-03-06T11:24:13;10.80;99.90
36002;DHT22;22070;50.922;5.430;2024-03-06T11:27:03;10.90;99.90
36002;DHT22;22070;50.922;5.430;2024-03-06T11:30:09;10.90;99.90
36002;DHT22;22070;50.922;5.430;2024-03-06T11:33:00;11.10;99.90
36002;DHT22;22070;50.922;5.430;2024-03-06T11:35:29;11.20;99.90
36002;DHT22;22070;50.922;5.430;2024-03-06T11:37:55;11.20;99.90
36002;DHT22;22070;50.922;5.430;2024-03-06T11:40:25;11.20;99.90
36002;DHT22;22070;50.922;5.430;2024-03-06T11:42:51;11.20;99.90
36002;DHT22;22070;50.922;5.430;2024-03-06T11:45:18;11.40;99.90
36002;DHT22;22070;50.922;5.430;2024-03-06T11:48:01;11.50;99.90
36002;DHT22;22070;50.922;5.430;2024-03-06T11:50:28;11.70;99.90
36002;DHT22;22070;50.922;5.430;2024-03-06T11:52:55;11.80;99.90
36002;DHT22;22070;50.922;5.430;2024-03-06T11:55:22;11.80;99.90
36002;DHT22;22070;50.922;5.430;2024-03-06T11:57:48;11.80;99.90
36002;DHT22;22070;50.922;5.430;2024-03-06T12:00:14;11.80;99.90
36002;DHT22;22070;50.922;5.430;2024-03-06T12:02:40;11.70;99.90
36002;DHT22;22070;50.922;5.430;2024-03-06T12:05:07;11.70;99.90
36002;DHT22;22070;50.922;5.430;2024-03-06T12:07:47;11.80;99.90
36002;DHT22;22070;50.922;5.430;2024-03-06T12:10:13;11.70;99.90
36002;DHT22;22070;50.922;5.430;2024-03-06T12:12:40;11.60;99.90
36002;DHT22;22070;50.922;5.430;2024-03-06T12:15:09;11.60;99.90
36002;DHT22;22070;50.922;5.430;2024-03-06T12:17:47;11.60;99.90
36002;DHT22;22070;50.922;5.430;2024-03-06T12:20:14;11.70;99.90
36002;DHT22;22070;50.922;5.430;2024-03-06T12:22:51;11.80;99.90
36002;DHT22;22070;50.922;5.430;2024-03-06T12:25:24;11.80;99.90
36002;DHT22;22070;50.922;5.430;2024-03-06T12:27:51;11.90;99.90
36002;DHT22;22070;50.922;5.430;2024-03-06T12:30:18;11.90;99.90
36002;DHT22;22070;50.922;5.430;2024-03-06T12:32:56;11.90;99.90
36002;DHT22;22070;50.922;5.430;2024-03-06T12:35:26;12.00;99.90
36002;DHT22;22070;50.922;5.430;2024-03-06T12:37:52;11.90;99.90
36002;DHT22;22070;50.922;5.430;2024-03-06T12:40:21;11.90;99.90
36002;DHT22;22070;50.922;5.430;2024-03-06T12:42:46;11.90;99.90
36002;DHT22;22070;50.922;5.430;2024-03-06T12:45:13;11.90;99.90
36002;DHT22;22070;50.922;5.430;2024-03-06T12:47:42;11.90;99.90
36002;DHT22;22070;50.922;5.430;2024-03-06T12:50:09;11.90;99.90
36002;DHT22;22070;50.922;5.430;2024-03-06T12:52:36;11.90;99.90
36002;DHT22;22070;50.922;5.430;2024-03-06T12:55:02;11.90;99.90
36002;DHT22;22070;50.922;5.430;2024-03-06T12:57:33;11.90;99.90
36002;DHT22;22070;50.922;5.430;2024-03-06T12:59:59;12.00;99.90
36002;DHT22;22070;50.922;5.430;2024-03-06T13:02:25;12.10;99.90
36002;DHT22;22070;50.922;5.430;2024-03-06T13:04:52;12.20;99.90
36002;DHT22;22070;50.922;5.430;2024-03-06T13:07:18;12.10;99.90
36002;DHT22;22070;50.922;5.430;2024-03-06T13:09:44;12.00;99.90
36002;DHT22;22070;50.922;5.430;2024-03-06T13:12:10;12.00;99.90
36002;DHT22;22070;50.922;5.430;2024-03-06T13:14:36;12.00;99.90
36002;DHT22;22070;50.922;5.430;2024-03-06T13:17:02;12.10;99.90
36002;DHT22;22070;50.922;5.430;2024-03-06T13:19:28;12.10;99.90
36002;DHT22;22070;50.922;5.430;2024-03-06T13:21:54;12.20;99.90
36002;DHT22;22070;50.922;5.430;2024-03-06T13:24:20;12.30;99.90
36002;DHT22;22070;50.922;5.430;2024-03-06T13:26:46;12.20;99.90
36002;DHT22;22070;50.922;5.430;2024-03-06T13:29:13;12.20;99.90
36002;DHT22;22070;50.922;5.430;2024-03-06T13:31:39;12.20;99.90
36002;DHT22;22070;50.922;5.430;2024-03-06T13:34:05;12.20;99.90
36002;DHT22;22070;50.922;5.430;2024-03-06T13:36:30;12.20;99.90
36002;DHT22;22070;50.922;5.430;2024-03-06T13:38:56;12.20;99.90
36002;DHT22;22070;50.922;5.430;2024-03-06T13:41:22;12.20;99.90
36002;DHT22;22070;50.922;5.430;2024-03-06T13:43:48;12.30;99.90
36002;DHT22;22070;50.922;5.430;2024-03-06T13:46:14;12.40;99.90
36002;DHT22;22070;50.922;5.430;2024-03-06T13:48:40;12.40;99.90
36002;DHT22;22070;50.922;5.430;2024-03-06T13:51:05;12.50;99.90
36002;DHT22;22070;50.922;5.430;2024-03-06T13:53:31;12.60;99.90
36002;DHT22;22070;50.922;5.430;2024-03-06T13:55:57;12.70;99.90
36002;DHT22;22070;50.922;5.430;2024-03-06T13:58:23;12.70;99.90
36002;DHT22;22070;50.922;5.430;2024-03-06T14:00:49;12.70;99.90
36002;DHT22;22070;50.922;5.430;2024-03-06T14:03:14;12.70;99.90
36002;DHT22;22070;50.922;5.430;2024-03-06T14:05:40;12.90;99.90
36002;DHT22;22070;50.922;5.430;2024-03-06T14:08:06;13.00;99.90
36002;DHT22;22070;50.922;5.430;2024-03-06T14:10:31;13.00;99.90
36002;DHT22;22070;50.922;5.430;2024-03-06T14:13:01;13.10;99.90
36002;DHT22;22070;50.922;5.430;2024-03-06T14:15:26;13.20;99.90
36002;DHT22;22070;50.922;5.430;2024-03-06T14:17:55;13.20;99.90
36002;DHT22;22070;50.922;5.430;2024-03-06T14:20:21;13.30;99.90
36002;DHT22;22070;50.922;5.430;2024-03-06T14:22:47;13.40;99.90
36002;DHT22;22070;50.922;5.430;2024-03-06T14:25:15;13.40;99.90
36002;DHT22;22070;50.922;5.430;2024-03-06T14:27:41;13.30;99.90
36002;DHT22;22070;50.922;5.430;2024-03-06T14:30:07;13.40;99.90
36002;DHT22;22070;50.922;5.430;2024-03-06T14:32:33;13.40;99.90
36002;DHT22;22070;50.922;5.430;2024-03-06T14:34:59;13.40;99.90
36002;DHT22;22070;50.922;5.430;2024-03-06T14:37:25;13.50;99.90
36002;DHT22;22070;50.922;5.430;2024-03-06T14:39:50;13.60;99.90
36002;DHT22;22070;50.922;5.430;2024-03-06T14:42:16;13.60;99.90
36002;DHT22;22070;50.922;5.430;2024-03-06T14:44:42;13.60;99.90
36002;DHT22;22070;50.922;5.430;2024-03-06T14:47:09;13.50;99.90
36002;DHT22;22070;50.922;5.430;2024-03-06T14:49:35;13.60;99.90
36002;DHT22;22070;50.922;5.430;2024-03-06T14:52:01;13.30;99.90
36002;DHT22;22070;50.922;5.430;2024-03-06T14:54:28;13.40;99.90
36002;DHT22;22070;50.922;5.430;2024-03-06T14:56:54;13.40;99.90
36002;DHT22;22070;50.922;5.430;2024-03-06T14:59:21;13.50;99.90
36002;DHT22;22070;50.922;5.430;2024-03-06T15:01:46;13.50;99.90
36002;DHT22;22070;50.922;5.430;2024-03-06T15:04:13;13.70;99.90
36002;DHT22;22070;50.922;5.430;2024-03-06T15:06:39;14.00;99.90
36002;DHT22;22070;50.922;5.430;2024-03-06T15:09:05;14.20;99.90
36002;DHT22;22070;50.922;5.430;2024-03-06T15:11:31;14.30;99.90
36002;DHT22;22070;50.922;5.430;2024-03-06T15:13:59;14.50;99.90
36002;DHT22;22070;50.922;5.430;2024-03-06T15:16:25;14.50;99.90
36002;DHT22;22070;50.922;5.430;2024-03-06T15:18:51;14.70;99.90
36002;DHT22;22070;50.922;5.430;2024-03-06T15:21:19;14.80;99.90
36002;DHT22;22070;50.922;5.430;2024-03-06T15:23:44;14.80;99.90
36002;DHT22;22070;50.922;5.430;2024-03-06T15:26:10;14.90;99.90
36002;DHT22;22070;50.922;5.430;2024-03-06T15:28:36;15.10;99.90
36002;DHT22;22070;50.922;5.430;2024-03-06T15:31:02;15.20;99.90
36002;DHT22;22070;50.922;5.430;2024-03-06T15:33:30;15.20;99.90
36002;DHT22;22070;50.922;5.430;2024-03-06T15:35:55;15.30;99.90
36002;DHT22;22070;50.922;5.430;2024-03-06T15:38:21;15.20;99.90
36002;DHT22;22070;50.922;5.430;2024-03-06T15:40:48;15.40;99.90
36002;DHT22;22070;50.922;5.430;2024-03-06T15:43:16;15.50;99.90
36002;DHT22;22070;50.922;5.430;2024-03-06T15:45:43;15.70;99.90
36002;DHT22;22070;50.922;5.430;2024-03-06T15:48:09;15.60;99.90